Terminal Aerodrome Forecast
Issued by NWS

Home | Current Version | Previous Version | Text Only | Print | Product List | Glossary On
Versions: 1 2 3 4 5 6 7 8 9 10 11 12 13 14 15 16 17 18 19 20 21 22 23
868
FTUS46 KSTO 101739
TAFSMF
TAF
KSMF 101739Z 1018/1118 17014G22KT 4SM -SHRA BR BKN015 OVC020
     FM102100 18012KT 5SM -SHRA BR OVC015
     FM110300 18008KT P6SM OVC015
     FM110900 VRB05KT P6SM SCT025
     FM111200 VRB04KT 2SM BR FEW250=

USA.gov is the U.S. government's official web portal to all federal, state and local government web resources and services.